createdAt,value
2019-05-21T00:01:39.523Z,67.34
2019-05-21T00:04:11.239Z,67.58
2019-05-21T00:06:47.860Z,67.75
2019-05-21T00:09:19.606Z,67.67
2019-05-21T00:11:54.602Z,67.42
2019-05-21T00:14:28.217Z,67.19
2019-05-21T00:16:59.966Z,67.00
2019-05-21T00:19:31.662Z,66.88
2019-05-21T00:22:04.325Z,66.69
2019-05-21T00:24:36.202Z,65.97
2019-05-21T00:27:09.564Z,66.07
2019-05-21T00:30:17.125Z,65.80
2019-05-21T00:33:24.349Z,65.56
2019-05-21T00:36:32.899Z,65.97
2019-05-21T00:39:40.330Z,66.61
2019-05-21T00:42:10.429Z,66.55
2019-05-21T00:44:45.347Z,67.23
2019-05-21T00:47:17.204Z,67.69
2019-05-21T00:49:48.914Z,68.98
2019-05-21T00:52:22.181Z,68.76
2019-05-21T00:54:54.271Z,68.61
2019-05-21T00:57:26.029Z,68.41
2019-05-21T00:59:57.768Z,68.49
2019-05-21T01:02:29.524Z,68.11
2019-05-21T01:05:01.736Z,67.77
2019-05-21T01:07:33.957Z,67.64
2019-05-21T01:10:06.132Z,67.61
2019-05-21T01:12:37.909Z,68.04
2019-05-21T01:15:09.667Z,68.29
2019-05-21T01:17:41.408Z,68.64
2019-05-21T01:20:13.198Z,68.75
2019-05-21T01:22:45.083Z,68.30
2019-05-21T01:25:17.825Z,68.01
2019-05-21T01:27:49.562Z,68.16
2019-05-21T01:30:22.434Z,68.09
2019-05-21T01:32:54.239Z,69.02
2019-05-21T01:35:25.956Z,69.65
2019-05-21T01:37:59.396Z,69.24
2019-05-21T01:40:31.198Z,69.09
2019-05-21T01:43:04.545Z,69.07
2019-05-21T01:45:36.713Z,68.98
2019-05-21T01:48:08.893Z,68.98
2019-05-21T01:50:40.608Z,69.16
2019-05-21T01:53:12.868Z,69.39
2019-05-21T01:55:44.575Z,69.90
2019-05-21T01:58:16.349Z,70.02
2019-05-21T02:00:48.057Z,70.18
2019-05-21T02:03:19.835Z,70.30
2019-05-21T02:05:51.773Z,70.35
2019-05-21T02:08:23.541Z,70.24
2019-05-21T02:10:55.289Z,70.34
2019-05-21T02:13:27.039Z,70.20
2019-05-21T02:16:01.773Z,70.04
2019-05-21T02:18:33.594Z,70.27
2019-05-21T02:21:05.387Z,70.36
2019-05-21T02:23:37.174Z,70.40
2019-05-21T02:26:09.314Z,70.17
2019-05-21T02:28:41.102Z,70.03
2019-05-21T02:31:13.171Z,70.53
2019-05-21T02:33:44.980Z,70.98
2019-05-21T02:36:16.665Z,71.10
2019-05-21T02:38:48.457Z,70.96
2019-05-21T02:41:21.820Z,71.25
2019-05-21T02:43:56.158Z,71.48
2019-05-21T02:46:30.569Z,71.41
2019-05-21T02:49:05.019Z,71.04
2019-05-21T02:51:36.774Z,70.75
2019-05-21T02:54:10.816Z,70.84
2019-05-21T02:56:43.536Z,70.83
2019-05-21T02:59:15.298Z,70.51
2019-05-21T03:02:05.852Z,70.16
2019-05-21T03:04:39.191Z,69.78
2019-05-21T03:07:19.834Z,70.16
2019-05-21T03:09:51.645Z,70.65
2019-05-21T03:12:23.497Z,71.01
2019-05-21T03:14:55.218Z,71.13
2019-05-21T03:17:26.985Z,71.08
2019-05-21T03:19:59.747Z,71.17
2019-05-21T03:22:31.558Z,71.59
2019-05-21T03:25:03.359Z,71.91
2019-05-21T03:27:37.186Z,72.28
2019-05-21T03:30:08.998Z,72.11
2019-05-21T03:32:40.846Z,72.25
2019-05-21T03:35:12.700Z,72.43
2019-05-21T03:37:45.038Z,72.29
2019-05-21T03:40:18.557Z,71.93
2019-05-21T03:42:50.302Z,71.56
2019-05-21T03:45:22.048Z,71.43
2019-05-21T03:47:53.775Z,71.21
2019-05-21T03:50:26.580Z,71.02
2019-05-21T03:52:58.312Z,71.36
2019-05-21T03:55:30.038Z,71.67
2019-05-21T03:58:02.263Z,71.79
2019-05-21T04:00:33.963Z,71.83
2019-05-21T04:03:07.240Z,71.61
2019-05-21T04:05:46.498Z,71.70
2019-05-21T04:08:18.225Z,71.91
2019-05-21T04:10:50.161Z,71.99
2019-05-21T04:13:23.521Z,72.14
2019-05-21T04:16:14.137Z,72.13
2019-05-21T04:18:53.815Z,72.89
2019-05-21T04:21:25.524Z,73.34
2019-05-21T04:23:57.241Z,73.55
2019-05-21T04:26:28.920Z,73.80
2019-05-21T04:29:00.654Z,73.85
2019-05-21T04:31:32.406Z,73.88
2019-05-21T04:34:05.989Z,73.73
2019-05-21T04:36:38.101Z,73.51
2019-05-21T04:39:09.852Z,73.54
2019-05-21T04:41:41.931Z,73.46
2019-05-21T04:44:13.697Z,73.34
2019-05-21T04:46:45.488Z,73.20
2019-05-21T04:49:17.221Z,73.07
2019-05-21T04:51:49.380Z,73.24
2019-05-21T04:54:21.082Z,73.07
2019-05-21T04:56:52.861Z,72.53
2019-05-21T04:59:24.555Z,72.64
2019-05-21T05:01:56.412Z,72.57
2019-05-21T05:04:28.138Z,72.36
2019-05-21T05:06:59.894Z,72.09
2019-05-21T05:09:31.841Z,72.25
2019-05-21T05:12:03.695Z,72.47
2019-05-21T05:14:37.707Z,73.13
2019-05-21T05:17:09.460Z,73.36
2019-05-21T05:19:41.177Z,73.31
2019-05-21T05:22:12.925Z,72.75
2019-05-21T05:24:44.712Z,72.85
2019-05-21T05:27:16.496Z,72.85
2019-05-21T05:29:49.881Z,72.74
2019-05-21T05:32:22.017Z,72.52
2019-05-21T05:34:53.815Z,72.21
2019-05-21T05:37:41.448Z,71.88
2019-05-21T05:40:00.636Z,71.41
2019-05-21T05:42:32.376Z,70.88
2019-05-21T05:45:04.125Z,70.75
2019-05-21T05:47:36.194Z,70.82
2019-05-21T05:50:10.183Z,70.53
2019-05-21T05:52:41.977Z,70.68
2019-05-21T05:55:13.751Z,70.48
2019-05-21T05:57:45.493Z,71.03
2019-05-21T06:00:17.370Z,70.04
2019-05-21T06:02:49.472Z,65.14
2019-05-21T06:05:21.268Z,60.28
2019-05-21T06:07:59.762Z,56.26
2019-05-21T06:10:28.051Z,55.16
2019-05-21T06:12:59.835Z,53.57
2019-05-21T06:15:37.372Z,52.62
2019-05-21T06:18:11.840Z,50.80
2019-05-21T06:20:44.016Z,51.50
2019-05-21T06:23:15.755Z,48.69
2019-05-21T06:25:47.494Z,47.23
2019-05-21T06:28:19.271Z,47.22
2019-05-21T06:30:58.853Z,46.15
2019-05-21T06:33:30.615Z,45.39
2019-05-21T06:36:02.407Z,47.81
2019-05-21T06:38:34.166Z,45.27
2019-05-21T06:41:06.211Z,45.50
2019-05-21T06:43:37.938Z,43.41
2019-05-21T06:46:09.688Z,44.45
2019-05-21T06:48:41.805Z,43.11
2019-05-21T06:51:13.607Z,41.69
2019-05-21T06:53:46.747Z,42.75
2019-05-21T06:56:20.231Z,40.96
2019-05-21T06:58:52.064Z,40.13
2019-05-21T07:01:28.864Z,38.96
2019-05-21T07:03:57.252Z,38.83
2019-05-21T07:06:28.957Z,38.32
2019-05-21T07:09:00.789Z,37.26
2019-05-21T07:11:34.122Z,36.93
2019-05-21T07:14:05.870Z,36.20
2019-05-21T07:16:37.595Z,36.77
2019-05-21T07:19:10.654Z,36.01
2019-05-21T07:21:42.476Z,35.50
2019-05-21T07:24:14.230Z,35.09
2019-05-21T07:26:47.838Z,34.17
2019-05-21T07:29:20.745Z,35.62
2019-05-21T07:31:53.935Z,34.29
2019-05-21T07:34:26.216Z,34.86
2019-05-21T07:36:59.635Z,36.83
2019-05-21T07:39:31.427Z,36.00
2019-05-21T07:42:04.845Z,35.75
2019-05-21T07:44:36.641Z,35.31
2019-05-21T07:47:08.596Z,34.91
2019-05-21T07:49:41.292Z,35.45
2019-05-21T07:52:13.180Z,33.91
2019-05-21T07:54:45.102Z,32.55
2019-05-21T07:57:16.919Z,32.11
2019-05-21T07:59:53.335Z,32.34
2019-05-21T08:02:25.110Z,35.20
2019-05-21T08:04:56.841Z,34.07
2019-05-21T08:07:29.083Z,33.06
2019-05-21T08:10:01.205Z,32.25
2019-05-21T08:12:39.432Z,31.68
2019-05-21T08:15:18.275Z,31.98
2019-05-21T08:18:01.706Z,30.83
2019-05-21T08:20:38.457Z,31.18
2019-05-21T08:23:10.492Z,30.09
2019-05-21T08:25:42.301Z,29.99
2019-05-21T08:28:14.224Z,30.00
2019-05-21T08:30:46.063Z,28.83
2019-05-21T08:33:17.844Z,30.02
2019-05-21T08:35:49.623Z,29.81
2019-05-21T08:38:23.077Z,30.21
2019-05-21T08:40:54.895Z,29.03
2019-05-21T08:43:26.707Z,33.29
2019-05-21T08:46:00.233Z,32.23
2019-05-21T08:48:32.233Z,37.64
2019-05-21T08:51:04.052Z,34.70
2019-05-21T08:53:37.844Z,32.16
2019-05-21T08:56:09.661Z,30.81
2019-05-21T08:58:41.439Z,29.15
2019-05-21T09:01:13.265Z,28.10
2019-05-21T09:03:46.064Z,28.39
2019-05-21T09:06:17.845Z,29.08
2019-05-21T09:08:51.739Z,28.43
2019-05-21T09:11:23.883Z,27.19
2019-05-21T09:13:55.750Z,28.23
2019-05-21T09:16:27.602Z,27.39
2019-05-21T09:18:59.514Z,25.84
2019-05-21T09:21:31.448Z,25.89
2019-05-21T09:24:03.315Z,26.23
2019-05-21T09:26:36.751Z,26.37
2019-05-21T09:29:10.277Z,26.37
2019-05-21T09:31:42.053Z,25.83
2019-05-21T09:34:14.221Z,26.02
2019-05-21T09:36:45.970Z,25.86
2019-05-21T09:39:17.831Z,24.82
2019-05-21T09:41:49.561Z,24.99
2019-05-21T09:44:22.409Z,26.68
2019-05-21T09:46:54.508Z,25.70
2019-05-21T09:49:27.281Z,25.29
2019-05-21T09:51:59.068Z,24.43
2019-05-21T09:54:30.830Z,25.57
2019-05-21T09:57:08.873Z,26.01
2019-05-21T09:59:45.847Z,25.40
2019-05-21T10:02:25.008Z,24.55
2019-05-21T10:04:56.804Z,24.39
2019-05-21T10:07:38.879Z,25.54
2019-05-21T10:10:02.312Z,24.42
2019-05-21T10:12:34.369Z,24.45
2019-05-21T10:15:06.712Z,23.15
2019-05-21T10:17:39.440Z,24.01
2019-05-21T10:20:11.270Z,23.47
2019-05-21T10:22:44.727Z,23.15
2019-05-21T10:25:16.455Z,24.09
2019-05-21T10:27:48.193Z,23.80
2019-05-21T10:30:20.972Z,25.50
2019-05-21T10:32:54.285Z,24.99
2019-05-21T10:35:26.046Z,24.14
2019-05-21T10:37:59.609Z,25.32
2019-05-21T10:40:31.328Z,24.49
2019-05-21T10:43:03.017Z,24.06
2019-05-21T10:45:36.145Z,23.45
2019-05-21T10:48:08.251Z,24.96
2019-05-21T10:50:39.986Z,27.72
2019-05-21T10:53:11.806Z,29.15
2019-05-21T10:55:44.708Z,25.50
2019-05-21T10:58:16.476Z,25.33
2019-05-21T11:00:49.219Z,24.55
2019-05-21T11:03:27.971Z,23.83
2019-05-21T11:06:10.044Z,23.17
2019-05-21T11:08:36.548Z,23.05
2019-05-21T11:11:08.359Z,23.45
2019-05-21T11:13:40.096Z,24.68
2019-05-21T11:16:11.892Z,24.37
2019-05-21T11:18:43.701Z,25.33
2019-05-21T11:21:15.455Z,23.94
2019-05-21T11:23:49.562Z,24.56
2019-05-21T11:26:24.309Z,23.98
2019-05-21T11:28:57.961Z,24.24
2019-05-21T11:31:29.675Z,26.96
2019-05-21T11:34:01.389Z,27.09
2019-05-21T11:36:34.106Z,28.96
2019-05-21T11:39:07.945Z,29.29
2019-05-21T11:41:41.291Z,28.38
2019-05-21T11:44:12.992Z,29.04
2019-05-21T11:46:44.721Z,29.42
2019-05-21T11:49:16.465Z,30.25
2019-05-21T11:51:49.793Z,29.89
2019-05-21T11:54:21.539Z,31.25
2019-05-21T11:56:53.295Z,33.18
2019-05-21T11:59:24.990Z,33.10
2019-05-21T12:01:56.750Z,31.50
2019-05-21T12:04:28.474Z,30.89
2019-05-21T12:07:03.246Z,31.48
2019-05-21T12:09:33.655Z,31.89
2019-05-21T12:12:07.232Z,31.67
2019-05-21T12:14:40.685Z,30.83
2019-05-21T12:17:12.386Z,31.99
2019-05-21T12:19:44.146Z,32.66
2019-05-21T12:22:16.145Z,32.14
2019-05-21T12:24:48.536Z,33.08
2019-05-21T12:27:20.271Z,34.10
2019-05-21T12:29:52.221Z,34.00
2019-05-21T12:32:23.937Z,32.57
2019-05-21T12:34:55.684Z,32.05
2019-05-21T12:37:28.620Z,31.60
2019-05-21T12:40:00.679Z,32.79
2019-05-21T12:42:34.250Z,31.62
2019-05-21T12:45:07.603Z,32.07
2019-05-21T12:47:39.301Z,33.66
2019-05-21T12:50:11.610Z,32.17
2019-05-21T12:52:44.953Z,32.43
2019-05-21T12:55:18.482Z,33.21
2019-05-21T12:57:50.493Z,33.50
2019-05-21T13:00:22.453Z,33.33
2019-05-21T13:02:54.359Z,34.00
2019-05-21T13:05:26.051Z,33.55
2019-05-21T13:07:57.810Z,33.71
2019-05-21T13:10:29.656Z,34.06
2019-05-21T13:13:02.994Z,34.30
2019-05-21T13:15:34.704Z,34.38
2019-05-21T13:18:06.459Z,33.61
2019-05-21T13:20:38.309Z,33.08
2019-05-21T13:23:10.248Z,32.55
2019-05-21T13:25:42.102Z,32.12
2019-05-21T13:28:13.852Z,31.46
2019-05-21T13:30:45.611Z,31.52
2019-05-21T13:33:19.387Z,31.04
2019-05-21T13:35:50.833Z,32.86
2019-05-21T13:38:22.577Z,33.51
2019-05-21T13:40:54.356Z,33.40
2019-05-21T13:43:26.250Z,32.31
2019-05-21T13:45:58.036Z,32.87
2019-05-21T13:48:29.823Z,32.16
2019-05-21T13:51:01.769Z,33.11
2019-05-21T13:53:33.468Z,31.57
2019-05-21T13:56:05.307Z,33.25
2019-05-21T13:58:37.031Z,32.65
2019-05-21T14:01:16.127Z,31.54
2019-05-21T14:03:49.120Z,31.22
2019-05-21T14:06:20.933Z,32.19
2019-05-21T14:08:52.655Z,32.28
2019-05-21T14:11:24.481Z,32.21
2019-05-21T14:13:56.599Z,33.59
2019-05-21T14:16:28.344Z,34.58
2019-05-21T14:19:01.342Z,37.40
2019-05-21T14:21:33.131Z,36.30
2019-05-21T14:24:04.896Z,37.08
2019-05-21T14:26:36.674Z,36.54
2019-05-21T14:29:08.975Z,37.21
2019-05-21T14:31:40.697Z,37.45
2019-05-21T14:34:12.693Z,36.46
2019-05-21T14:36:44.858Z,38.70
2019-05-21T14:39:18.504Z,39.36
2019-05-21T14:41:50.183Z,39.90
2019-05-21T14:44:22.144Z,40.07
2019-05-21T14:46:54.792Z,40.11
2019-05-21T14:49:30.972Z,40.01
2019-05-21T14:52:02.803Z,40.16
2019-05-21T14:54:34.597Z,40.12
2019-05-21T14:57:12.618Z,40.21
2019-05-21T14:59:44.330Z,40.40
2019-05-21T15:02:17.120Z,39.83
2019-05-21T15:04:49.098Z,40.51
2019-05-21T15:07:21.933Z,40.97
2019-05-21T15:09:53.849Z,41.23
2019-05-21T15:12:25.656Z,40.16
2019-05-21T15:14:57.337Z,41.24
2019-05-21T15:17:31.931Z,40.88
2019-05-21T15:20:07.174Z,41.36
2019-05-21T15:22:38.925Z,41.44
2019-05-21T15:25:10.634Z,41.93
2019-05-21T15:27:42.355Z,42.06
2019-05-21T15:30:17.321Z,41.82
2019-05-21T15:32:49.043Z,41.72
2019-05-21T15:35:20.795Z,42.37
2019-05-21T15:37:52.562Z,42.90
2019-05-21T15:40:24.354Z,42.00
2019-05-21T15:42:56.129Z,42.23
2019-05-21T15:45:27.961Z,42.42
2019-05-21T15:47:59.805Z,42.90
2019-05-21T15:50:33.878Z,42.75
2019-05-21T15:53:05.739Z,42.72
2019-05-21T15:55:37.612Z,42.91
2019-05-21T15:58:10.295Z,43.07
2019-05-21T16:00:42.349Z,43.37
2019-05-21T16:03:15.737Z,43.16
2019-05-21T16:05:49.151Z,43.36
2019-05-21T16:08:20.895Z,42.79
2019-05-21T16:10:52.705Z,43.19
2019-05-21T16:13:24.743Z,43.00
2019-05-21T16:15:56.920Z,42.80
2019-05-21T16:18:52.415Z,42.09
2019-05-21T16:21:25.911Z,42.49
2019-05-21T16:23:57.875Z,42.83
2019-05-21T16:26:29.575Z,43.85
2019-05-21T16:29:02.826Z,44.12
2019-05-21T16:31:34.639Z,44.07
2019-05-21T16:34:06.565Z,44.17
2019-05-21T16:36:38.322Z,43.87
2019-05-21T16:39:10.023Z,43.54
2019-05-21T16:41:45.334Z,43.58
2019-05-21T16:44:18.421Z,43.47
2019-05-21T16:46:50.572Z,44.03
2019-05-21T16:49:22.563Z,44.04
2019-05-21T16:51:54.354Z,43.57
2019-05-21T16:54:26.173Z,42.35
2019-05-21T16:57:00.511Z,42.58
2019-05-21T16:59:32.430Z,42.22
2019-05-21T17:02:14.509Z,42.96
2019-05-21T17:05:07.194Z,42.35
2019-05-21T17:07:51.828Z,42.38
2019-05-21T17:10:31.513Z,42.58
2019-05-21T17:13:05.968Z,42.31
2019-05-21T17:15:39.461Z,42.51
2019-05-21T17:18:21.334Z,42.55
2019-05-21T17:20:53.284Z,42.57
2019-05-21T17:23:25.025Z,43.30
2019-05-21T17:25:58.363Z,42.61
2019-05-21T17:28:30.077Z,42.64
2019-05-21T17:31:01.799Z,42.51
2019-05-21T17:33:33.506Z,42.45
2019-05-21T17:36:07.472Z,42.31
2019-05-21T17:39:00.309Z,42.07
2019-05-21T17:41:51.066Z,41.52
2019-05-21T17:44:25.451Z,41.34
2019-05-21T17:46:58.425Z,40.67
2019-05-21T17:49:30.100Z,41.65
2019-05-21T17:52:03.254Z,42.04
2019-05-21T17:54:34.967Z,42.60
2019-05-21T17:57:06.827Z,42.01
2019-05-21T17:59:38.551Z,43.16
2019-05-21T18:02:13.869Z,43.72
2019-05-21T18:04:46.603Z,43.61
2019-05-21T18:07:18.999Z,43.38
2019-05-21T18:09:50.905Z,43.13
2019-05-21T18:12:32.013Z,43.31
2019-05-21T18:14:59.284Z,43.34
2019-05-21T18:17:31.099Z,43.25
2019-05-21T18:20:03.484Z,42.67
2019-05-21T18:22:36.918Z,42.38
2019-05-21T18:25:09.804Z,42.41
2019-05-21T18:27:41.900Z,42.86
2019-05-21T18:30:13.690Z,43.47
2019-05-21T18:32:45.614Z,43.14
2019-05-21T18:35:17.388Z,42.98
2019-05-21T18:37:49.272Z,42.41
2019-05-21T18:40:21.013Z,43.22
2019-05-21T18:42:52.749Z,42.58
2019-05-21T18:45:24.464Z,42.26
2019-05-21T18:47:56.264Z,42.39
2019-05-21T18:50:36.343Z,42.32
2019-05-21T18:53:01.926Z,42.69
2019-05-21T18:55:33.662Z,43.07
2019-05-21T18:58:05.464Z,43.39
2019-05-21T19:00:37.190Z,43.43
2019-05-21T19:03:12.958Z,43.64
2019-05-21T19:05:44.941Z,43.65
2019-05-21T19:08:21.366Z,43.91
2019-05-21T19:10:53.245Z,43.74
2019-05-21T19:13:28.906Z,44.24
2019-05-21T19:16:06.146Z,43.98
2019-05-21T19:18:38.307Z,44.08
2019-05-21T19:21:11.327Z,44.85
2019-05-21T19:23:43.069Z,44.92
2019-05-21T19:26:15.179Z,45.01
2019-05-21T19:28:48.419Z,45.21
2019-05-21T19:31:22.281Z,45.38
2019-05-21T19:33:54.145Z,45.65
2019-05-21T19:36:28.126Z,45.50
2019-05-21T19:39:01.494Z,46.45
2019-05-21T19:41:34.987Z,46.40
2019-05-21T19:44:06.710Z,46.92
2019-05-21T19:46:38.767Z,46.97
2019-05-21T19:49:11.666Z,47.01
2019-05-21T19:51:46.205Z,47.28
2019-05-21T19:54:19.501Z,47.20
2019-05-21T19:56:54.419Z,47.33
2019-05-21T19:59:28.583Z,48.30
2019-05-21T20:02:00.426Z,48.73
2019-05-21T20:04:34.209Z,49.07
2019-05-21T20:07:09.692Z,49.85
2019-05-21T20:09:42.594Z,50.34
2019-05-21T20:12:17.757Z,50.79
2019-05-21T20:14:49.491Z,50.62
2019-05-21T20:17:24.495Z,50.62
2019-05-21T20:19:58.594Z,50.62
2019-05-21T20:22:30.681Z,50.99
2019-05-21T20:25:05.428Z,51.30
2019-05-21T20:27:37.690Z,51.50
2019-05-21T20:30:13.318Z,51.94
2019-05-21T20:32:46.562Z,52.22
2019-05-21T20:35:18.701Z,52.43
2019-05-21T20:37:51.678Z,52.07
2019-05-21T20:40:26.804Z,52.20
2019-05-21T20:42:58.854Z,52.71
2019-05-21T20:45:31.530Z,53.27
2019-05-21T20:48:03.828Z,53.69
2019-05-21T20:50:37.783Z,53.95
2019-05-21T20:53:09.708Z,53.95
2019-05-21T20:55:41.460Z,53.86
2019-05-21T20:58:13.164Z,53.53
2019-05-21T21:00:49.643Z,54.37
2019-05-21T21:03:22.384Z,54.38
2019-05-21T21:05:55.769Z,54.70
2019-05-21T21:08:30.889Z,54.92
2019-05-21T21:11:03.779Z,54.84
2019-05-21T21:13:36.897Z,55.17
2019-05-21T21:16:10.992Z,54.99
2019-05-21T21:18:43.076Z,55.37
2019-05-21T21:21:15.061Z,55.38
2019-05-21T21:23:46.884Z,55.41
2019-05-21T21:26:20.688Z,55.89
2019-05-21T21:28:52.512Z,55.52
2019-05-21T21:31:24.411Z,55.88
2019-05-21T21:33:59.163Z,56.02
2019-05-21T21:36:30.921Z,56.46
2019-05-21T21:39:05.510Z,57.04
2019-05-21T21:41:39.116Z,57.72
2019-05-21T21:44:12.592Z,57.92
2019-05-21T21:46:45.561Z,57.63
2019-05-21T21:49:20.509Z,57.65
2019-05-21T21:51:52.294Z,58.09
2019-05-21T21:54:24.005Z,57.87
2019-05-21T21:56:56.026Z,58.27
2019-05-21T21:59:27.802Z,59.14
2019-05-21T22:02:05.725Z,59.67
2019-05-21T22:04:37.446Z,59.39
2019-05-21T22:07:11.670Z,59.42
2019-05-21T22:09:46.186Z,59.57
2019-05-21T22:12:18.868Z,59.81
2019-05-21T22:14:57.749Z,59.82
2019-05-21T22:17:29.929Z,59.72
2019-05-21T22:20:01.760Z,59.67
2019-05-21T22:22:34.503Z,59.83
2019-05-21T22:25:08.319Z,60.18
2019-05-21T22:27:40.119Z,60.38
2019-05-21T22:30:12.517Z,60.81
2019-05-21T22:32:44.582Z,61.41
2019-05-21T22:35:16.454Z,61.91
2019-05-21T22:37:48.181Z,62.06
2019-05-21T22:40:20.046Z,61.63
2019-05-21T22:42:53.437Z,62.16
2019-05-21T22:45:25.152Z,62.25
2019-05-21T22:47:58.630Z,61.84
2019-05-21T22:50:30.438Z,62.84
2019-05-21T22:53:02.759Z,63.26
2019-05-21T22:55:36.660Z,63.08
2019-05-21T22:58:09.170Z,62.93
2019-05-21T23:01:03.710Z,62.79
2019-05-21T23:03:43.072Z,63.19
2019-05-21T23:06:16.554Z,63.55
2019-05-21T23:08:49.453Z,63.40
2019-05-21T23:11:23.123Z,63.19
2019-05-21T23:13:56.246Z,63.32
2019-05-21T23:19:39.669Z,63.90
2019-05-21T23:22:16.396Z,64.31
2019-05-21T23:24:48.913Z,64.86
2019-05-21T23:27:22.110Z,64.70
2019-05-21T23:29:54.873Z,65.25
2019-05-21T23:32:26.591Z,65.16
2019-05-21T23:35:00.060Z,65.92
2019-05-21T23:37:33.467Z,65.90
2019-05-21T23:40:06.838Z,65.83
2019-05-21T23:42:38.778Z,65.92
2019-05-21T23:45:12.370Z,66.05
2019-05-21T23:47:44.112Z,66.23
2019-05-21T23:50:19.104Z,66.18
2019-05-21T23:53:24.044Z,66.24
2019-05-21T23:56:09.660Z,66.11
2019-05-21T23:58:42.235Z,66.49
